Time;durP1;ratioP1;P1;durP2;ratioP2;P2;SDS_P1;SDS_P2;PMS_P1;PMS_P2;Temp;Humidity;BMP_temperature;BMP_pressure;BME280_temperature;BME280_humidity;BME280_pressure;Samples;Min_cycle;Max_cycle;Signal;HPM_P1;HPM_P2
2023/03/09 00:02:30;;;;;;;126.87;50.77;;;-2.40;99.90;;;;;;9862053;30;20223;-78
2023/03/09 00:07:54;;;;;;;132.13;55.23;;;-2.50;99.90;;;;;;9855551;30;20261;-78
2023/03/09 00:13:15;;;;;;;140.80;60.43;;;-2.50;99.90;;;;;;9827927;30;20211;-77
2023/03/09 00:18:36;;;;;;;131.10;53.73;;;-2.70;99.90;;;;;;9855124;30;20244;-77
2023/03/09 00:23:57;;;;;;;111.63;51.20;;;-2.80;99.90;;;;;;9839161;30;20246;-78
2023/03/09 00:29:19;;;;;;;104.43;46.67;;;-2.80;99.90;;;;;;9842182;30;20244;-79
2023/03/09 00:34:40;;;;;;;83.83;39.63;;;-2.80;99.90;;;;;;9855107;30;20563;-78
2023/03/09 00:40:01;;;;;;;82.97;38.50;;;-2.80;99.90;;;;;;9841710;30;20220;-78
2023/03/09 00:45:23;;;;;;;77.47;36.57;;;-2.90;99.90;;;;;;9854566;30;20539;-78
2023/03/09 00:50:44;;;;;;;69.60;34.40;;;-2.90;99.90;;;;;;9853475;30;20246;-78
2023/03/09 00:56:09;;;;;;;65.97;32.17;;;-2.90;99.90;;;;;;9829864;30;20284;-77
2023/03/09 01:01:30;;;;;;;69.03;31.50;;;-3.10;99.90;;;;;;9840345;30;20219;-77
2023/03/09 01:06:55;;;;;;;74.53;33.97;;;-3.20;99.90;;;;;;9841947;30;20204;-80
2023/03/09 01:12:16;;;;;;;78.23;35.97;;;-3.20;99.90;;;;;;9823704;30;20397;-81
2023/03/09 01:17:37;;;;;;;68.37;33.60;;;-3.20;99.90;;;;;;9833291;30;20561;-79
2023/03/09 01:22:58;;;;;;;63.77;32.77;;;-3.20;99.90;;;;;;9796283;30;20507;-79
2023/03/09 01:28:22;;;;;;;64.83;31.67;;;-3.10;99.90;;;;;;9820177;30;20209;-77
2023/03/09 01:33:47;;;;;;;55.80;28.83;;;-3.20;99.90;;;;;;9857860;30;20277;-77
2023/03/09 01:39:09;;;;;;;45.77;24.07;;;-3.10;99.90;;;;;;9872600;30;20234;-79
2023/03/09 01:44:30;;;;;;;43.27;23.27;;;-2.90;99.90;;;;;;9890975;30;20215;-79
2023/03/09 01:49:52;;;;;;;51.97;26.37;;;-2.80;99.90;;;;;;9870468;30;20258;-78
2023/03/09 01:55:16;;;;;;;58.03;26.93;;;-2.80;99.90;;;;;;9894289;30;20211;-78
2023/03/09 02:00:42;;;;;;;52.97;26.63;;;-2.80;99.90;;;;;;9820223;30;20213;-77
2023/03/09 02:06:14;;;;;;;58.07;27.17;;;-2.90;99.90;;;;;;9845926;30;20208;-77
2023/03/09 02:11:37;;;;;;;65.80;29.17;;;-2.90;99.90;;;;;;9827716;30;20240;-78
2023/03/09 02:16:59;;;;;;;73.40;33.50;;;-3.00;99.90;;;;;;9819408;30;20484;-76
2023/03/09 02:22:21;;;;;;;67.97;32.90;;;-3.00;99.90;;;;;;9837686;30;20274;-78
2023/03/09 02:27:43;;;;;;;63.00;31.27;;;-3.00;99.90;;;;;;9825351;30;20228;-78
2023/03/09 02:33:10;;;;;;;67.70;33.63;;;-3.10;99.90;;;;;;9853690;30;20256;-79
2023/03/09 02:38:34;;;;;;;60.27;30.80;;;-3.20;99.90;;;;;;9822640;30;20400;-78
2023/03/09 02:43:58;;;;;;;52.03;25.73;;;-3.20;99.90;;;;;;9888633;30;20214;-77
2023/03/09 02:49:24;;;;;;;54.73;27.70;;;-3.30;99.90;;;;;;9860264;30;20476;-78
2023/03/09 02:54:45;;;;;;;70.60;33.37;;;-3.30;99.90;;;;;;9873851;30;20299;-78
2023/03/09 03:00:10;;;;;;;55.87;27.50;;;-3.40;99.90;;;;;;9862491;30;20214;-78
2023/03/09 03:05:31;;;;;;;64.07;31.80;;;-3.50;99.90;;;;;;9857336;30;20255;-78
2023/03/09 03:10:53;;;;;;;75.80;35.53;;;-3.60;99.90;;;;;;9826121;30;20609;-78
2023/03/09 03:16:15;;;;;;;64.53;31.60;;;-3.70;99.90;;;;;;9848504;30;20234;-78
2023/03/09 03:21:37;;;;;;;48.77;24.73;;;-3.60;99.90;;;;;;9818559;30;20221;-78
2023/03/09 03:26:59;;;;;;;40.90;21.13;;;-3.70;99.90;;;;;;9822205;30;20200;-77
2023/03/09 03:32:20;;;;;;;42.97;21.03;;;-3.60;99.90;;;;;;9823809;30;20260;-78
2023/03/09 03:37:42;;;;;;;40.87;19.97;;;-3.50;99.90;;;;;;9828051;30;20449;-79
2023/03/09 03:43:04;;;;;;;36.17;18.17;;;-3.50;99.90;;;;;;9886719;30;20214;-77
2023/03/09 03:48:25;;;;;;;40.73;21.20;;;-3.60;99.90;;;;;;9876663;30;20250;-77
2023/03/09 03:53:49;;;;;;;43.93;22.53;;;-3.50;99.90;;;;;;9832821;30;20244;-78
2023/03/09 03:59:12;;;;;;;73.10;31.77;;;-3.60;99.90;;;;;;9840375;30;20276;-77
2023/03/09 04:04:33;;;;;;;137.43;58.90;;;-3.80;99.90;;;;;;9832236;30;20526;-77
2023/03/09 04:10:00;;;;;;;137.00;61.60;;;-3.90;99.90;;;;;;9810482;30;20266;-78
2023/03/09 04:15:24;;;;;;;98.43;46.10;;;-3.90;99.90;;;;;;9821641;30;20308;-77
2023/03/09 04:20:47;;;;;;;49.23;25.57;;;;;;;;;;9821981;30;20238;-81
2023/03/09 04:26:10;;;;;;;39.30;20.90;;;-3.90;99.90;;;;;;9818704;30;20401;-78
2023/03/09 04:31:50;;;;;;;49.40;24.43;;;-4.00;99.90;;;;;;9821744;30;20237;-78
2023/03/09 04:37:11;;;;;;;33.53;17.70;;;-3.90;99.90;;;;;;9818986;30;20392;-78
2023/03/09 04:42:34;;;;;;;24.87;14.23;;;-3.90;99.90;;;;;;9866125;30;20218;-78
2023/03/09 04:47:56;;;;;;;26.53;14.50;;;-3.90;99.90;;;;;;9878900;30;20234;-77
2023/03/09 04:53:17;;;;;;;31.07;14.63;;;-3.90;99.90;;;;;;9859344;30;20280;-78
2023/03/09 04:58:40;;;;;;;27.90;13.27;;;-3.90;99.90;;;;;;9853266;30;20208;-83
2023/03/09 05:04:02;;;;;;;29.83;14.87;;;-3.80;99.90;;;;;;9856408;30;20434;-78
2023/03/09 05:09:28;;;;;;;26.77;13.13;;;-3.90;99.90;;;;;;9839097;30;20451;-79
2023/03/09 05:14:50;;;;;;;26.23;12.97;;;-3.90;99.90;;;;;;9813258;30;20216;-78
2023/03/09 05:20:14;;;;;;;23.37;14.50;;;-3.90;99.90;;;;;;9820252;30;20306;-79
2023/03/09 05:25:41;;;;;;;23.57;13.63;;;-3.80;99.90;;;;;;9805818;30;20504;-78
2023/03/09 05:31:08;;;;;;;27.67;14.40;;;-3.60;99.90;;;;;;9827102;30;20289;-79
2023/03/09 05:36:31;;;;;;;29.23;16.07;;;-3.60;99.90;;;;;;9827314;30;20237;-78
2023/03/09 05:41:59;;;;;;;31.73;16.00;;;-3.50;99.90;;;;;;9854649;30;20272;-78
2023/03/09 05:47:28;;;;;;;27.40;16.67;;;-3.40;99.90;;;;;;9875703;30;20207;-79
2023/03/09 05:52:50;;;;;;;35.33;17.53;;;-3.30;99.90;;;;;;9885669;30;20262;-78
2023/03/09 05:58:14;;;;;;;37.67;18.60;;;-3.20;99.90;;;;;;9875811;30;20199;-78
2023/03/09 06:03:36;;;;;;;41.37;21.00;;;-3.10;99.90;;;;;;9848281;30;20208;-79
2023/03/09 06:08:57;;;;;;;41.10;20.70;;;-3.00;99.90;;;;;;9846010;30;20216;-79
2023/03/09 06:14:19;;;;;;;52.43;25.23;;;-2.80;99.90;;;;;;9840304;30;20452;-78
2023/03/09 06:19:42;;;;;;;56.70;28.70;;;-2.60;99.90;;;;;;9826725;30;20200;-79
2023/03/09 06:25:03;;;;;;;56.23;29.70;;;-2.50;99.90;;;;;;9811527;30;20209;-79
2023/03/09 06:30:26;;;;;;;60.50;32.07;;;-2.30;99.90;;;;;;9832925;30;20245;-80
2023/03/09 06:35:50;;;;;;;57.90;31.40;;;-2.10;99.90;;;;;;9836131;30;20249;-84
2023/03/09 06:41:12;;;;;;;51.10;26.10;;;-1.90;99.90;;;;;;9849192;30;20223;-81
2023/03/09 06:46:33;;;;;;;52.03;25.13;;;-1.80;99.90;;;;;;9881294;30;20388;-84
2023/03/09 06:51:57;;;;;;;44.33;22.63;;;-1.70;99.90;;;;;;9840487;30;20316;-79
2023/03/09 06:57:20;;;;;;;47.53;22.60;;;-1.50;99.70;;;;;;9847713;30;20444;-81
2023/03/09 07:02:41;;;;;;;49.23;24.27;;;-1.30;99.90;;;;;;9878970;30;20281;-79
2023/03/09 07:08:03;;;;;;;62.20;24.53;;;-1.10;99.90;;;;;;9881715;30;20205;-81
2023/03/09 07:13:24;;;;;;;82.50;32.00;;;-0.90;99.90;;;;;;9851128;30;20241;-79
2023/03/09 07:18:45;;;;;;;86.23;31.87;;;-0.70;99.90;;;;;;9865914;30;20220;-83
2023/03/09 07:24:07;;;;;;;85.50;33.57;;;-0.40;99.70;;;;;;9840144;30;20245;-83
2023/03/09 07:29:29;;;;;;;82.37;31.47;;;-0.10;99.90;;;;;;9825748;30;20219;-84
2023/03/09 07:34:50;;;;;;;87.37;34.17;;;0.20;99.90;;;;;;9826743;30;20346;-82
2023/03/09 07:40:12;;;;;;;108.93;43.40;;;0.60;99.50;;;;;;9875738;30;20213;-85
2023/03/09 07:45:33;;;;;;;100.13;42.00;;;1.00;98.80;;;;;;9858146;30;20210;-80
2023/03/09 07:50:59;;;;;;;106.97;49.60;;;1.30;97.90;;;;;;9858628;30;20231;-78
2023/03/09 07:56:20;;;;;;;119.63;49.93;;;1.60;98.50;;;;;;9843751;30;20218;-84
2023/03/09 08:01:41;;;;;;;117.33;36.47;;;1.90;97.40;;;;;;9825538;30;20289;-84
2023/03/09 08:07:02;;;;;;;107.97;34.80;;;2.10;95.20;;;;;;9845279;30;20213;-79
2023/03/09 08:12:24;;;;;;;121.37;37.47;;;2.20;86.20;;;;;;9845907;30;20267;-80
2023/03/09 08:17:45;;;;;;;94.30;27.37;;;1.90;92.60;;;;;;9808543;30;20284;-82
2023/03/09 08:23:07;;;;;;;36.90;14.40;;;1.90;90.80;;;;;;9833915;30;20215;-84
2023/03/09 08:28:28;;;;;;;89.27;22.50;;;2.20;89.50;;;;;;9825788;30;20247;-80
2023/03/09 08:33:49;;;;;;;42.37;15.27;;;2.70;70.90;;;;;;9845429;30;20460;-84
2023/03/09 08:39:11;;;;;;;31.80;11.47;;;2.90;53.90;;;;;;9852209;30;20212;-83
2023/03/09 08:44:32;;;;;;;33.40;13.17;;;2.80;47.90;;;;;;9865699;30;20223;-80
2023/03/09 08:49:53;;;;;;;26.17;11.70;;;2.80;42.50;;;;;;9849522;30;20248;-80
2023/03/09 08:55:15;;;;;;;47.53;17.83;;;2.70;38.70;;;;;;9870134;30;20211;-83
2023/03/09 09:00:37;;;;;;;59.70;19.17;;;2.70;37.50;;;;;;9872141;30;20394;-83
2023/03/09 09:06:24;;;;;;;86.23;27.50;;;2.80;37.70;;;;;;9843499;30;20414;-79
2023/03/09 09:11:46;;;;;;;169.43;45.37;;;2.80;35.80;;;;;;9855757;30;20239;-82
2023/03/09 09:17:08;;;;;;;55.03;17.63;;;2.90;29.50;;;;;;9851780;30;20269;-80
2023/03/09 09:22:29;;;;;;;15.73;6.30;;;3.00;27.00;;;;;;9830248;30;20221;-83
2023/03/09 09:27:51;;;;;;;42.10;11.73;;;3.50;24.50;;;;;;9822846;30;20209;-83
2023/03/09 09:33:12;;;;;;;24.07;9.20;;;3.90;23.90;;;;;;9850532;30;20261;-81
2023/03/09 09:38:34;;;;;;;25.33;8.80;;;4.00;21.40;;;;;;9858058;30;20200;-83
2023/03/09 09:44:00;;;;;;;10.77;5.10;;;4.10;20.50;;;;;;9787406;30;20595;-78
2023/03/09 09:49:25;;;;;;;14.83;6.00;;;4.30;18.00;;;;;;9848352;30;20225;-82
2023/03/09 09:54:58;;;;;;;13.70;5.50;;;4.30;17.80;;;;;;9829676;30;20271;-84
2023/03/09 10:00:34;;;;;;;10.20;5.10;;;4.40;17.10;;;;;;9832193;30;20216;-81
2023/03/09 10:06:17;;;;;;;18.70;7.97;;;4.20;15.60;;;;;;9836370;30;20208;-79
2023/03/09 10:11:43;;;;;;;17.33;8.33;;;4.20;16.30;;;;;;9839504;30;20245;-81
2023/03/09 10:17:26;;;;;;;7.83;4.10;;;4.40;15.70;;;;;;9848869;30;20271;-83
2023/03/09 10:22:55;;;;;;;10.50;3.90;;;4.50;15.10;;;;;;9848103;30;20222;-80
2023/03/09 10:28:24;;;;;;;12.27;5.40;;;4.50;13.90;;;;;;9842409;30;20208;-80
2023/03/09 10:34:13;;;;;;;13.47;5.57;;;4.70;13.90;;;;;;9890980;30;20451;-83
2023/03/09 10:39:46;;;;;;;9.17;4.57;;;5.10;12.60;;;;;;9839657;30;20214;-82
2023/03/09 10:45:27;;;;;;;7.77;4.17;;;5.80;11.20;;;;;;9827300;30;20415;-86
2023/03/09 10:51:01;;;;;;;5.03;2.53;;;6.70;10.00;;;;;;9847872;30;20315;-80
2023/03/09 10:56:25;;;;;;;20.17;8.87;;;7.20;6.90;;;;;;9861708;30;20214;-79
2023/03/09 11:01:50;;;;;;;12.00;5.17;;;7.80;7.40;;;;;;9872625;30;20239;-79
2023/03/09 11:07:18;;;;;;;12.67;5.37;;;8.10;5.70;;;;;;9860126;30;20206;-84
2023/03/09 11:12:46;;;;;;;11.50;4.87;;;7.30;5.20;;;;;;9819113;30;20335;-79
2023/03/09 11:18:29;;;;;;;13.17;6.93;;;6.70;5.10;;;;;;9840994;30;20512;-83
2023/03/09 11:23:53;;;;;;;18.97;8.83;;;5.90;6.30;;;;;;9830758;30;20286;-82
2023/03/09 11:29:31;;;;;;;18.93;9.43;;;5.50;6.50;;;;;;9813258;30;20289;-79
2023/03/09 11:34:53;;;;;;;14.77;7.60;;;5.40;7.60;;;;;;9837821;30;20256;-83
2023/03/09 11:40:19;;;;;;;8.27;4.27;;;5.30;5.30;;;;;;9862671;30;20221;-85
2023/03/09 11:45:44;;;;;;;9.70;5.03;;;5.10;5.60;;;;;;9866035;30;20224;-83
2023/03/09 11:51:18;;;;;;;11.33;4.40;;;5.00;6.00;;;;;;9853228;30;20241;-82
2023/03/09 11:56:47;;;;;;;17.40;7.93;;;5.10;6.30;;;;;;9867027;30;20214;-85
2023/03/09 12:02:18;;;;;;;12.27;5.67;;;5.20;7.10;;;;;;9829015;30;20230;-79
2023/03/09 12:08:12;;;;;;;7.53;4.37;;;5.20;4.70;;;;;;9813978;30;20210;-80
2023/03/09 12:13:43;;;;;;;9.13;3.73;;;5.10;3.60;;;;;;9849647;30;20232;-87
2023/03/09 12:19:10;;;;;;;10.53;3.97;;;5.00;5.60;;;;;;9852606;30;20285;-81
2023/03/09 12:24:38;;;;;;;12.93;5.83;;;5.10;5.80;;;;;;9851718;30;20277;-78
2023/03/09 12:29:59;;;;;;;10.47;5.00;;;4.90;6.00;;;;;;9816834;30;20227;-78
2023/03/09 12:35:21;;;;;;;10.17;4.93;;;5.20;6.40;;;;;;9845262;30;20311;-79
2023/03/09 12:40:42;;;;;;;10.13;4.40;;;5.20;5.30;;;;;;9844044;30;20407;-79
2023/03/09 12:46:48;;;;;;;11.37;4.87;;;5.10;4.90;;;;;;9824407;30;20428;-79
2023/03/09 12:52:14;;;;;;;9.30;4.50;;;5.10;6.40;;;;;;9838963;30;20234;-81
2023/03/09 12:57:35;;;;;;;8.60;3.80;;;5.00;6.40;;;;;;9819611;30;20378;-82
2023/03/09 13:03:05;;;;;;;22.73;6.33;;;4.70;5.50;;;;;;9855546;30;20244;-82
2023/03/09 13:08:30;;;;;;;12.50;6.07;;;4.60;6.50;;;;;;9858939;30;20238;-85
2023/03/09 13:14:02;;;;;;;11.83;4.80;;;4.50;6.40;;;;;;9814994;30;20242;-82
2023/03/09 13:19:24;;;;;;;13.13;5.87;;;4.40;7.80;;;;;;9850526;30;20252;-85
2023/03/09 13:24:47;;;;;;;8.40;4.03;;;4.40;7.40;;;;;;9850559;30;20177;-80
2023/03/09 13:30:12;;;;;;;9.27;4.50;;;4.10;7.80;;;;;;9854080;30;20309;-83
2023/03/09 13:35:40;;;;;;;8.13;3.73;;;3.90;8.80;;;;;;9863585;30;20263;-81
2023/03/09 13:41:05;;;;;;;13.03;6.67;;;3.70;8.90;;;;;;9819290;30;20229;-83
2023/03/09 13:46:35;;;;;;;12.30;5.10;;;3.60;10.20;;;;;;9829100;30;20216;-85
2023/03/09 13:52:03;;;;;;;13.17;7.20;;;3.60;10.30;;;;;;9855062;30;20417;-79
2023/03/09 13:57:41;;;;;;;17.93;10.13;;;3.70;11.10;;;;;;9864003;30;20241;-92
2023/03/09 14:03:11;;;;;;;13.60;7.10;;;3.70;10.80;;;;;;9829617;30;20212;-85
2023/03/09 14:08:44;;;;;;;7.37;4.10;;;3.80;11.00;;;;;;9817028;30;20210;-86
2023/03/09 14:14:08;;;;;;;10.60;4.83;;;3.90;10.50;;;;;;9839551;30;20241;-78
2023/03/09 14:19:32;;;;;;;11.50;4.90;;;3.80;8.60;;;;;;9839824;30;20280;-86
2023/03/09 14:24:53;;;;;;;10.80;5.00;;;3.80;10.10;;;;;;9858550;30;20210;-85
2023/03/09 14:30:30;;;;;;;7.60;4.00;;;3.70;9.40;;;;;;9831249;30;20217;-81
2023/03/09 14:36:04;;;;;;;10.47;5.30;;;3.50;9.10;;;;;;9832251;30;1237712;-82
2023/03/09 14:41:28;;;;;;;13.00;4.63;;;3.60;8.80;;;;;;9842237;30;20212;-82
2023/03/09 14:46:50;;;;;;;14.23;5.70;;;3.40;8.50;;;;;;9852715;30;20230;-82
2023/03/09 14:52:12;;;;;;;74.23;33.27;;;3.30;9.50;;;;;;9832080;30;20316;-83
2023/03/09 14:57:33;;;;;;;77.97;46.40;;;3.20;9.70;;;;;;9849063;30;20215;-83
2023/03/09 15:02:54;;;;;;;41.40;22.83;;;3.20;10.50;;;;;;9820156;30;20215;-79
2023/03/09 15:08:15;;;;;;;30.13;16.60;;;3.20;10.80;;;;;;9856012;30;20216;-79
2023/03/09 15:13:38;;;;;;;15.23;8.63;;;3.20;10.60;;;;;;9865646;30;20253;-78
2023/03/09 15:18:59;;;;;;;21.30;11.03;;;3.00;10.40;;;;;;9849866;30;20284;-82
2023/03/09 15:24:23;;;;;;;17.93;10.17;;;2.90;11.20;;;;;;9873152;30;20451;-88
2023/03/09 15:29:44;;;;;;;48.23;18.17;;;2.90;11.80;;;;;;9848058;30;20223;-88
2023/03/09 15:35:06;;;;;;;50.17;17.23;;;2.80;12.10;;;;;;9860295;30;20462;-85
2023/03/09 15:40:27;;;;;;;44.13;15.93;;;2.80;12.30;;;;;;9841691;30;20221;-82
2023/03/09 15:45:49;;;;;;;37.67;15.67;;;2.70;12.60;;;;;;9870494;30;20584;-78
2023/03/09 15:51:11;;;;;;;40.30;18.70;;;2.60;12.90;;;;;;9878359;30;20576;-87
2023/03/09 15:56:32;;;;;;;34.57;16.60;;;2.70;13.00;;;;;;9841235;30;20212;-88
2023/03/09 16:01:54;;;;;;;35.97;17.57;;;2.60;13.30;;;;;;9845262;30;20207;-81
2023/03/09 16:07:16;;;;;;;60.77;29.37;;;2.60;13.50;;;;;;9836708;30;20265;-90
2023/03/09 16:12:37;;;;;;;38.10;21.50;;;2.60;13.90;;;;;;9841872;30;20252;-85
2023/03/09 16:17:59;;;;;;;42.37;19.80;;;2.60;14.00;;;;;;9832348;30;20215;-84
2023/03/09 16:23:20;;;;;;;27.73;15.60;;;2.50;14.40;;;;;;9848124;30;20247;-85
2023/03/09 16:28:42;;;;;;;33.97;15.13;;;2.50;14.40;;;;;;9835082;30;20217;-83
2023/03/09 16:34:03;;;;;;;38.73;18.00;;;2.40;15.00;;;;;;9817599;30;20255;-85
2023/03/09 16:39:25;;;;;;;39.10;19.53;;;2.30;15.20;;;;;;9856037;30;20203;-81
2023/03/09 16:44:49;;;;;;;41.93;19.73;;;2.30;15.20;;;;;;9871582;30;20217;-85
2023/03/09 16:50:17;;;;;;;50.83;22.67;;;2.20;15.50;;;;;;9843700;30;20241;-82
2023/03/09 16:55:38;;;;;;;100.70;45.17;;;2.10;15.80;;;;;;9840833;30;20242;-82
2023/03/09 17:01:00;;;;;;;184.47;114.30;;;2.10;16.30;;;;;;9817264;30;20587;-81
2023/03/09 17:06:21;;;;;;;178.20;112.80;;;2.00;16.50;;;;;;9807638;30;20243;-82
2023/03/09 17:11:43;;;;;;;134.80;69.27;;;1.90;17.20;;;;;;9808632;30;20320;-83
2023/03/09 17:17:04;;;;;;;147.97;61.97;;;1.90;17.70;;;;;;9813614;30;20269;-88
2023/03/09 17:22:26;;;;;;;165.23;68.20;;;1.90;1.00;;;;;;9830091;30;20212;-82
2023/03/09 17:27:47;;;;;;;152.83;61.03;;;1.90;1.00;;;;;;9861241;30;20250;-84
2023/03/09 17:33:08;;;;;;;146.47;61.00;;;1.90;1.00;;;;;;9834715;30;20259;-83
2023/03/09 17:38:30;;;;;;;147.50;61.43;;;1.90;1.00;;;;;;9868645;30;20208;-82
2023/03/09 17:43:51;;;;;;;136.97;57.03;;;1.80;1.00;;;;;;9847143;30;20220;-82
2023/03/09 17:49:13;;;;;;;131.73;57.93;;;1.80;1.00;;;;;;9839182;30;20215;-85
2023/03/09 17:54:34;;;;;;;106.43;46.77;;;1.80;1.00;;;;;;9848455;30;20253;-85
2023/03/09 17:59:55;;;;;;;86.67;39.20;;;1.80;1.00;;;;;;9833553;30;20238;-89
2023/03/09 18:05:16;;;;;;;78.60;36.60;;;1.70;1.00;;;;;;9837763;30;20404;-87
2023/03/09 18:10:47;;;;;;;76.97;31.90;;;1.70;1.00;;;;;;9871164;30;20208;-85
2023/03/09 18:16:20;;;;;;;74.57;30.43;;;1.60;1.00;;;;;;9841457;30;20237;-84
2023/03/09 18:21:41;;;;;;;75.83;32.57;;;1.70;1.00;;;;;;9851626;30;20206;-87
2023/03/09 18:27:03;;;;;;;84.40;34.97;;;1.60;1.00;;;;;;9855042;30;20228;-87
2023/03/09 18:32:25;;;;;;;84.43;36.70;;;1.60;1.00;;;;;;9850835;30;20258;-81
2023/03/09 18:37:48;;;;;;;81.40;36.20;;;1.60;1.00;;;;;;9850803;30;20211;-89
2023/03/09 18:43:09;;;;;;;79.17;32.63;;;1.60;1.00;;;;;;9879038;30;20218;-82
2023/03/09 18:48:44;;;;;;;70.20;31.67;;;1.60;1.00;;;;;;9866579;30;20229;-85
2023/03/09 18:54:06;;;;;;;65.17;28.93;;;1.60;1.00;;;;;;9873600;30;20299;-82
2023/03/09 18:59:30;;;;;;;64.60;29.97;;;1.60;1.00;;;;;;9865247;30;20227;-87
2023/03/09 19:04:51;;;;;;;76.83;35.40;;;1.50;1.00;;;;;;9852209;30;20215;-86
2023/03/09 19:10:12;;;;;;;85.07;36.33;;;1.40;1.00;;;;;;9838074;30;20241;-87
2023/03/09 19:15:33;;;;;;;81.37;36.13;;;1.30;1.00;;;;;;9879944;30;20468;-87
2023/03/09 19:20:55;;;;;;;110.53;39.97;;;1.30;14.60;;;;;;9866163;30;20199;-86
2023/03/09 19:26:17;;;;;;;108.13;42.33;;;1.30;62.50;;;;;;9842527;30;20212;-81
2023/03/09 19:31:39;;;;;;;102.33;40.50;;;1.20;99.90;;;;;;9827896;30;20266;-84
2023/03/09 19:37:01;;;;;;;93.40;39.43;;;1.20;99.90;;;;;;9829908;30;20442;-83
2023/03/09 19:42:22;;;;;;;92.90;37.50;;;1.20;99.90;;;;;;9892762;30;20282;-82
2023/03/09 19:47:43;;;;;;;90.10;36.17;;;1.20;99.90;;;;;;9902441;30;20212;-85
2023/03/09 19:53:05;;;;;;;71.40;31.10;;;1.20;99.90;;;;;;9851268;30;20244;-87
2023/03/09 19:58:26;;;;;;;81.03;32.93;;;1.20;99.90;;;;;;9845633;30;20522;-85
2023/03/09 20:03:50;;;;;;;70.10;31.23;;;1.20;99.90;;;;;;9840951;30;20294;-85
2023/03/09 20:09:11;;;;;;;78.30;32.10;;;1.20;99.90;;;;;;9829362;30;20262;-84
2023/03/09 20:14:34;;;;;;;64.97;28.03;;;1.20;99.90;;;;;;9788787;30;20262;-86
2023/03/09 20:19:57;;;;;;;51.00;24.93;;;1.10;99.90;;;;;;9840614;30;20196;-87
2023/03/09 20:25:18;;;;;;;47.23;22.20;;;1.10;99.90;;;;;;9828389;30;20210;-85
2023/03/09 20:30:42;;;;;;;65.57;27.43;;;1.10;99.90;;;;;;9847103;30;20248;-85
2023/03/09 20:36:03;;;;;;;54.50;23.67;;;1.10;99.90;;;;;;9835427;30;20549;-82
2023/03/09 20:41:26;;;;;;;74.83;31.83;;;1.10;99.90;;;;;;9846237;30;20207;-83
2023/03/09 20:46:47;;;;;;;58.97;23.27;;;1.00;99.90;;;;;;9833449;30;20452;-85
2023/03/09 20:52:08;;;;;;;54.60;22.30;;;1.10;99.90;;;;;;9829260;30;20306;-86
2023/03/09 20:57:29;;;;;;;42.23;18.93;;;1.00;99.90;;;;;;9821112;30;20215;-86
2023/03/09 21:02:51;;;;;;;43.17;17.80;;;1.00;99.90;;;;;;9809938;30;20214;-85
2023/03/09 21:08:14;;;;;;;46.97;19.63;;;1.00;88.20;;;;;;9806166;30;20210;-84
2023/03/09 21:13:39;;;;;;;54.83;21.70;;;0.90;99.90;;;;;;9825110;30;20230;-85
2023/03/09 21:19:02;;;;;;;38.03;15.80;;;0.90;99.90;;;;;;9797438;30;20233;-85
2023/03/09 21:24:23;;;;;;;54.07;21.47;;;0.90;99.90;;;;;;9816262;30;20207;-86
2023/03/09 21:29:44;;;;;;;56.00;23.33;;;0.90;99.90;;;;;;9834329;30;20208;-87
2023/03/09 21:35:06;;;;;;;56.30;22.60;;;0.90;1.00;;;;;;9855505;30;20246;-89
2023/03/09 21:40:28;;;;;;;65.37;30.30;;;0.80;99.90;;;;;;9865502;30;20455;-84
2023/03/09 21:45:53;;;;;;;73.57;32.10;;;0.90;99.90;;;;;;9873869;30;20214;-82
2023/03/09 21:51:14;;;;;;;59.77;27.17;;;0.90;99.90;;;;;;9824205;30;20220;-87
2023/03/09 21:56:37;;;;;;;54.33;24.37;;;0.90;1.00;;;;;;9845009;30;20396;-86
2023/03/09 22:01:59;;;;;;;45.30;18.33;;;0.90;1.00;;;;;;9856794;30;20207;-87
2023/03/09 22:07:21;;;;;;;42.60;17.07;;;0.90;37.60;;;;;;9856614;30;20539;-87
2023/03/09 22:12:42;;;;;;;36.17;15.73;;;0.90;37.00;;;;;;9859361;30;20241;-86
2023/03/09 22:18:04;;;;;;;31.00;13.83;;;0.90;38.00;;;;;;9840968;30;20208;-86
2023/03/09 22:23:25;;;;;;;27.73;11.90;;;0.90;38.20;;;;;;9851910;30;20213;-87
2023/03/09 22:28:47;;;;;;;22.67;10.77;;;0.80;39.30;;;;;;9838071;30;20279;-86
2023/03/09 22:34:09;;;;;;;27.50;12.07;;;0.80;40.40;;;;;;9838600;30;20269;-87
2023/03/09 22:39:31;;;;;;;26.97;12.37;;;0.80;42.80;;;;;;9823508;30;20370;-89
2023/03/09 22:44:54;;;;;;;33.00;13.47;;;0.70;43.30;;;;;;9843091;30;20212;-87
2023/03/09 22:50:15;;;;;;;26.87;11.50;;;0.70;44.70;;;;;;9883712;30;20211;-86
2023/03/09 22:55:40;;;;;;;24.00;11.27;;;0.70;46.70;;;;;;9852430;30;20469;-88
2023/03/09 23:01:22;;;;;;;25.07;11.30;;;0.60;51.60;;;;;;9802560;30;20208;-88
2023/03/09 23:06:45;;;;;;;25.23;11.20;;;0.60;55.20;;;;;;9825773;30;20512;-88
2023/03/09 23:12:07;;;;;;;32.90;12.70;;;0.60;57.80;;;;;;9807005;30;20238;-88
2023/03/09 23:17:28;;;;;;;34.97;13.43;;;0.50;56.90;;;;;;9814732;30;20212;-88
2023/03/09 23:22:50;;;;;;;37.30;13.57;;;0.60;56.20;;;;;;9822640;30;20204;-82
2023/03/09 23:28:11;;;;;;;28.13;11.73;;;0.60;60.10;;;;;;9889513;30;20552;-86
2023/03/09 23:33:33;;;;;;;23.87;10.77;;;0.50;56.30;;;;;;9871313;30;20314;-89
2023/03/09 23:38:55;;;;;;;23.90;9.40;;;0.40;60.70;;;;;;9859328;30;20195;-88
2023/03/09 23:44:17;;;;;;;20.67;9.07;;;0.40;58.10;;;;;;9861303;30;20221;-86
2023/03/09 23:49:38;;;;;;;21.97;9.93;;;0.50;57.00;;;;;;9863772;30;20205;-86
2023/03/09 23:55:03;;;;;;;24.80;10.30;;;0.50;55.90;;;;;;9887773;30;20213;-83
